createdAt,value
2018-12-23T00:00:30.907Z,8.10
2018-12-23T00:02:59.305Z,8.00
2018-12-23T00:05:27.664Z,8.00
2018-12-23T00:07:56.021Z,8.00
2018-12-23T00:10:24.588Z,8.00
2018-12-23T00:12:53.140Z,8.00
2018-12-23T00:15:21.500Z,8.00
2018-12-23T00:17:49.875Z,8.00
2018-12-23T00:20:18.255Z,8.00
2018-12-23T00:22:46.644Z,8.00
2018-12-23T00:25:15.061Z,8.00
2018-12-23T00:27:43.431Z,8.00
2018-12-23T00:30:12.098Z,8.00
2018-12-23T00:32:40.503Z,8.00
2018-12-23T00:35:08.986Z,8.00
2018-12-23T00:37:37.859Z,8.00
2018-12-23T00:40:06.717Z,8.00
2018-12-23T00:42:35.090Z,8.00
2018-12-23T00:45:03.619Z,8.00
2018-12-23T00:47:31.992Z,8.00
2018-12-23T00:50:00.347Z,8.00
2018-12-23T00:52:28.709Z,7.90
2018-12-23T00:54:57.136Z,8.00
2018-12-23T00:57:25.503Z,8.00
2018-12-23T00:59:53.854Z,8.00
2018-12-23T01:02:22.248Z,8.00
2018-12-23T01:04:50.639Z,8.00
2018-12-23T01:07:19.038Z,8.00
2018-12-23T01:09:47.514Z,8.00
2018-12-23T01:12:16.641Z,8.10
2018-12-23T01:14:45.363Z,8.00
2018-12-23T01:17:13.747Z,8.00
2018-12-23T01:19:42.111Z,8.00
2018-12-23T01:22:10.548Z,8.00
2018-12-23T01:24:38.937Z,8.00
2018-12-23T01:27:07.305Z,8.00
2018-12-23T01:29:35.656Z,8.00
2018-12-23T01:32:04.217Z,8.00
2018-12-23T01:34:37.069Z,8.00
2018-12-23T01:37:03.024Z,8.00
2018-12-23T01:39:31.789Z,8.00
2018-12-23T01:42:00.274Z,8.00
2018-12-23T01:44:28.613Z,8.00
2018-12-23T01:46:57.021Z,8.00
2018-12-23T01:49:25.397Z,8.00
2018-12-23T01:51:53.749Z,7.90
2018-12-23T01:54:22.149Z,7.90
2018-12-23T01:56:50.497Z,7.90
2018-12-23T01:59:18.861Z,7.90
2018-12-23T02:01:47.258Z,7.90
2018-12-23T02:04:15.614Z,8.00
2018-12-23T02:06:44.425Z,8.00
2018-12-23T02:09:12.963Z,8.00
2018-12-23T02:11:41.317Z,8.00
2018-12-23T02:14:09.661Z,8.00
2018-12-23T02:16:38.043Z,8.10
2018-12-23T02:19:06.568Z,8.10
2018-12-23T02:21:34.912Z,8.10
2018-12-23T02:24:03.358Z,8.20
2018-12-23T02:26:31.721Z,8.10
2018-12-23T02:29:00.071Z,8.10
2018-12-23T02:31:28.485Z,8.10
2018-12-23T02:33:56.833Z,8.10
2018-12-23T02:36:25.588Z,8.10
2018-12-23T02:38:53.961Z,8.10
2018-12-23T02:41:31.326Z,8.10
2018-12-23T02:43:52.907Z,8.20
2018-12-23T02:46:21.308Z,8.20
2018-12-23T02:48:49.650Z,8.20
2018-12-23T02:51:18.309Z,8.20
2018-12-23T02:53:46.793Z,8.30
2018-12-23T02:56:15.146Z,8.20
2018-12-23T02:58:43.497Z,8.30
2018-12-23T03:01:11.886Z,8.30
2018-12-23T03:03:40.230Z,8.30
2018-12-23T03:06:08.703Z,8.30
2018-12-23T03:08:37.293Z,8.30
2018-12-23T03:11:05.657Z,8.40
2018-12-23T03:13:34.032Z,8.30
2018-12-23T03:16:02.442Z,8.40
2018-12-23T03:18:30.799Z,8.50
2018-12-23T03:20:59.181Z,8.50
2018-12-23T03:23:27.553Z,8.50
2018-12-23T03:25:55.939Z,8.50
2018-12-23T03:28:24.307Z,8.50
2018-12-23T03:30:52.681Z,8.50
2018-12-23T03:33:21.099Z,8.60
2018-12-23T03:35:49.508Z,8.60
2018-12-23T03:38:17.877Z,8.60
2018-12-23T03:40:46.234Z,8.60
2018-12-23T03:43:14.580Z,8.70
2018-12-23T03:45:42.995Z,8.70
2018-12-23T03:48:11.441Z,8.70
2018-12-23T03:50:40.131Z,8.70
2018-12-23T03:53:08.523Z,8.80
2018-12-23T03:55:36.860Z,8.80
2018-12-23T03:58:05.207Z,8.80
2018-12-23T04:00:33.573Z,8.90
2018-12-23T04:03:01.920Z,8.90
2018-12-23T04:05:30.271Z,9.00
2018-12-23T04:07:58.739Z,9.00
2018-12-23T04:10:27.147Z,9.00
2018-12-23T04:12:55.506Z,9.00
2018-12-23T04:15:23.888Z,9.00
2018-12-23T04:17:52.240Z,9.00
2018-12-23T04:20:20.825Z,9.00
2018-12-23T04:22:49.199Z,9.00
2018-12-23T04:25:17.547Z,9.00
2018-12-23T04:27:45.903Z,9.00
2018-12-23T04:30:14.267Z,9.00
2018-12-23T04:32:42.734Z,9.00
2018-12-23T04:35:11.460Z,9.00
2018-12-23T04:37:39.938Z,9.00
2018-12-23T04:40:08.281Z,9.00
2018-12-23T04:42:36.626Z,9.00
2018-12-23T04:45:05.124Z,9.00
2018-12-23T04:47:33.579Z,9.00
2018-12-23T04:50:01.939Z,9.00
2018-12-23T04:52:30.319Z,9.10
2018-12-23T04:54:58.661Z,9.10
2018-12-23T04:57:27.013Z,9.10
2018-12-23T04:59:55.603Z,9.10
2018-12-23T05:02:24.154Z,9.20
2018-12-23T05:04:52.491Z,9.10
2018-12-23T05:07:21.088Z,9.10
2018-12-23T05:09:49.456Z,9.10
2018-12-23T05:12:17.846Z,9.10
2018-12-23T05:14:46.210Z,9.10
2018-12-23T05:17:14.583Z,9.00
2018-12-23T05:19:42.970Z,9.10
2018-12-23T05:22:11.382Z,9.00
2018-12-23T05:24:39.752Z,9.10
2018-12-23T05:27:08.123Z,9.00
2018-12-23T05:29:36.747Z,9.00
2018-12-23T05:32:05.111Z,9.10
2018-12-23T05:34:33.458Z,9.00
2018-12-23T05:37:01.965Z,9.00
2018-12-23T05:39:30.639Z,9.00
2018-12-23T05:41:58.985Z,9.00
2018-12-23T05:44:27.363Z,9.00
2018-12-23T05:46:55.724Z,9.00
2018-12-23T05:49:24.097Z,9.00
2018-12-23T05:51:52.493Z,9.10
2018-12-23T05:54:20.887Z,9.10
2018-12-23T05:56:49.243Z,9.10
2018-12-23T05:59:17.623Z,9.10
2018-12-23T06:01:46.011Z,9.10
2018-12-23T06:04:14.371Z,9.20
2018-12-23T06:06:42.843Z,9.20
2018-12-23T06:09:11.201Z,9.20
2018-12-23T06:11:39.559Z,9.30
2018-12-23T06:14:07.915Z,9.20
2018-12-23T06:16:36.280Z,9.30
2018-12-23T06:19:04.627Z,9.30
2018-12-23T06:21:33.159Z,9.30
2018-12-23T06:24:01.507Z,9.30
2018-12-23T06:26:30.243Z,9.20
2018-12-23T06:28:58.802Z,9.20
2018-12-23T06:32:17.939Z,9.30
2018-12-23T06:34:59.149Z,9.20
2018-12-23T06:37:40.268Z,9.20
2018-12-23T06:40:21.240Z,9.30
2018-12-23T06:43:02.444Z,9.20
2018-12-23T06:45:43.467Z,9.20
2018-12-23T06:48:24.350Z,9.20
2018-12-23T06:51:05.681Z,9.20
2018-12-23T06:53:46.792Z,9.20
2018-12-23T06:56:27.562Z,9.20
2018-12-23T06:59:09.205Z,9.20
2018-12-23T07:01:50.740Z,9.20
2018-12-23T07:04:31.912Z,9.20
2018-12-23T07:07:18.659Z,9.20
2018-12-23T07:09:56.554Z,9.20
2018-12-23T07:12:37.595Z,9.10
2018-12-23T07:15:18.515Z,9.20
2018-12-23T07:17:59.960Z,9.20
2018-12-23T07:20:40.913Z,9.20
2018-12-23T07:23:20.668Z,9.20
2018-12-23T07:26:09.235Z,9.30
2018-12-23T07:28:50.533Z,9.30
2018-12-23T07:31:31.405Z,9.30
2018-12-23T07:34:12.574Z,9.40
2018-12-23T07:36:53.572Z,9.40
2018-12-23T07:39:34.548Z,9.40
2018-12-23T07:42:15.685Z,9.40
2018-12-23T07:44:56.689Z,9.40
2018-12-23T07:47:38.168Z,9.40
2018-12-23T07:50:19.217Z,9.50
2018-12-23T07:53:00.038Z,9.40
2018-12-23T07:55:40.780Z,9.50
2018-12-23T07:58:29.348Z,9.40
2018-12-23T08:01:10.932Z,9.40
2018-12-23T08:03:51.633Z,9.50
2018-12-23T08:06:32.556Z,9.50
2018-12-23T08:09:13.531Z,9.40
2018-12-23T08:11:54.328Z,9.50
2018-12-23T08:14:35.195Z,9.50
2018-12-23T08:17:16.126Z,9.50
2018-12-23T08:19:57.230Z,9.50
2018-12-23T08:22:38.384Z,9.50
2018-12-23T08:25:19.370Z,9.50
2018-12-23T08:28:00.143Z,9.50
2018-12-23T08:30:41.378Z,9.50
2018-12-23T08:33:22.530Z,9.50
2018-12-23T08:36:03.504Z,9.50
2018-12-23T08:38:44.688Z,9.50
2018-12-23T08:41:25.810Z,9.50
2018-12-23T08:44:07.343Z,9.50
2018-12-23T08:46:48.375Z,9.50
2018-12-23T08:49:29.166Z,9.60
2018-12-23T08:52:09.914Z,9.60
2018-12-23T08:54:51.055Z,9.60
2018-12-23T08:57:32.012Z,9.60
2018-12-23T09:00:12.903Z,9.70
2018-12-23T09:02:53.864Z,9.70
2018-12-23T09:05:34.585Z,9.70
2018-12-23T09:08:15.522Z,9.70
2018-12-23T09:10:56.946Z,9.70
2018-12-23T09:13:38.164Z,9.70
2018-12-23T09:16:19.383Z,9.70
2018-12-23T09:19:00.332Z,9.70
2018-12-23T09:21:41.298Z,9.70
2018-12-23T09:24:22.292Z,9.80
2018-12-23T09:27:03.287Z,9.80
2018-12-23T09:29:44.363Z,9.80
2018-12-23T09:32:25.443Z,9.80
2018-12-23T09:35:06.295Z,9.80
2018-12-23T09:37:47.308Z,9.90
2018-12-23T09:40:28.197Z,9.90
2018-12-23T09:43:09.016Z,9.90
2018-12-23T09:45:49.957Z,9.90
2018-12-23T09:48:30.702Z,9.90
2018-12-23T09:51:11.802Z,9.90
2018-12-23T09:53:52.627Z,9.90
2018-12-23T09:56:34.037Z,10.00
2018-12-23T09:59:15.461Z,10.00
2018-12-23T10:01:56.652Z,10.00
2018-12-23T10:04:37.707Z,10.00
2018-12-23T10:07:18.971Z,10.00
2018-12-23T10:09:59.932Z,10.00
2018-12-23T10:12:40.885Z,10.00
2018-12-23T10:15:21.816Z,10.00
2018-12-23T10:18:02.820Z,10.00
2018-12-23T10:20:43.927Z,9.90
2018-12-23T10:23:24.883Z,9.80
2018-12-23T10:26:06.023Z,9.80
2018-12-23T10:28:47.084Z,9.80
2018-12-23T10:31:28.597Z,9.80
2018-12-23T10:34:09.577Z,9.80
2018-12-23T10:36:50.474Z,9.90
2018-12-23T10:39:31.590Z,9.90
2018-12-23T10:42:12.726Z,9.90
2018-12-23T10:44:52.643Z,9.90
2018-12-23T10:47:32.357Z,9.80
2018-12-23T10:50:20.927Z,9.90
2018-12-23T10:53:01.797Z,9.90
2018-12-23T10:55:42.579Z,9.90
2018-12-23T10:58:24.045Z,9.90
2018-12-23T11:01:05.575Z,9.90
2018-12-23T11:03:46.560Z,9.90
2018-12-23T11:06:27.577Z,9.90
2018-12-23T11:09:08.750Z,9.90
2018-12-23T11:11:50.287Z,9.90
2018-12-23T11:14:31.360Z,9.90
2018-12-23T11:17:12.428Z,9.90
2018-12-23T11:19:53.573Z,9.80
2018-12-23T11:22:34.414Z,9.80
2018-12-23T11:25:15.332Z,9.80
2018-12-23T11:27:56.085Z,9.80
2018-12-23T11:30:37.150Z,9.80
2018-12-23T11:33:17.955Z,9.90
2018-12-23T11:35:59.225Z,9.90
2018-12-23T11:38:40.220Z,9.90
2018-12-23T11:41:21.157Z,9.90
2018-12-23T11:44:02.256Z,9.90
2018-12-23T11:46:43.368Z,9.90
2018-12-23T11:49:24.527Z,9.80
2018-12-23T11:52:05.748Z,9.90
2018-12-23T11:54:46.516Z,9.90
2018-12-23T11:57:27.298Z,9.90
2018-12-23T12:00:08.639Z,9.90
2018-12-23T12:02:49.697Z,10.00
2018-12-23T12:05:30.758Z,10.00
2018-12-23T12:08:11.794Z,10.00
2018-12-23T12:10:52.935Z,10.10
2018-12-23T12:13:34.451Z,10.10
2018-12-23T12:16:15.582Z,10.00
2018-12-23T12:18:57.288Z,10.10
2018-12-23T12:21:38.458Z,10.10
2018-12-23T12:24:19.658Z,10.10
2018-12-23T12:27:00.648Z,10.00
2018-12-23T12:29:40.429Z,10.10
2018-12-23T12:35:29.592Z,10.10
2018-12-23T12:38:10.598Z,10.10
2018-12-23T12:40:52.274Z,10.20
2018-12-23T12:46:39.482Z,10.20
2018-12-23T12:49:28.128Z,10.10
2018-12-23T12:52:09.384Z,10.00
2018-12-23T12:54:50.154Z,10.10
2018-12-23T12:57:31.799Z,10.00
2018-12-23T13:00:12.698Z,10.00
2018-12-23T13:02:53.561Z,9.90
2018-12-23T13:05:34.457Z,9.90
2018-12-23T13:08:16.055Z,10.00
2018-12-23T13:10:57.175Z,9.90
2018-12-23T13:13:38.055Z,9.90
2018-12-23T13:16:19.119Z,9.90
2018-12-23T13:18:59.916Z,9.90
2018-12-23T13:21:40.913Z,9.90
2018-12-23T13:24:21.940Z,9.80
2018-12-23T13:27:02.962Z,9.80
2018-12-23T13:29:42.909Z,9.80
2018-12-23T13:32:31.480Z,9.80
2018-12-23T13:35:12.530Z,9.70
2018-12-23T13:37:53.265Z,9.80
2018-12-23T13:40:34.255Z,9.80
2018-12-23T13:43:15.521Z,9.80
2018-12-23T13:45:56.772Z,9.60
2018-12-23T13:48:37.914Z,9.60
2018-12-23T13:51:19.606Z,9.60
2018-12-23T13:54:00.423Z,9.50
2018-12-23T13:56:41.447Z,9.60
2018-12-23T13:59:22.865Z,9.60
2018-12-23T14:02:03.911Z,9.60
2018-12-23T14:04:44.894Z,9.60
2018-12-23T14:07:26.031Z,9.50
2018-12-23T14:10:07.231Z,9.50
2018-12-23T14:12:48.281Z,9.50
2018-12-23T14:15:29.740Z,9.50
2018-12-23T14:18:10.640Z,9.50
2018-12-23T14:20:51.544Z,9.50
2018-12-23T14:23:31.262Z,9.50
2018-12-23T14:26:19.847Z,9.50
2018-12-23T14:29:00.801Z,9.50
2018-12-23T14:31:41.655Z,9.50
2018-12-23T14:34:23.069Z,9.50
2018-12-23T14:37:03.933Z,9.50
2018-12-23T14:39:45.557Z,9.50
2018-12-23T14:42:26.691Z,9.50
2018-12-23T14:45:07.580Z,9.50
2018-12-23T14:47:47.288Z,9.40
2018-12-23T14:50:28.941Z,9.40
2018-12-23T14:53:09.932Z,9.50
2018-12-23T14:55:50.854Z,9.60
2018-12-23T14:58:32.093Z,9.60
2018-12-23T15:01:13.353Z,9.60
2018-12-23T15:03:54.181Z,9.70
2018-12-23T15:06:35.283Z,9.70
2018-12-23T15:09:16.187Z,9.70
2018-12-23T15:11:57.132Z,9.70
2018-12-23T15:14:38.495Z,9.70
2018-12-23T15:17:19.556Z,9.70
2018-12-23T15:20:00.677Z,9.70
2018-12-23T15:22:42.286Z,9.70
2018-12-23T15:25:23.455Z,9.80
2018-12-23T15:28:04.584Z,9.80
2018-12-23T15:30:45.947Z,9.80
2018-12-23T15:33:27.051Z,9.80
2018-12-23T15:36:08.117Z,9.90
2018-12-23T15:38:49.018Z,9.90
2018-12-23T15:41:30.269Z,10.00
2018-12-23T15:44:11.028Z,10.00
2018-12-23T15:46:50.692Z,10.00
2018-12-23T15:49:31.500Z,10.10
2018-12-23T15:52:12.711Z,10.10
2018-12-23T15:54:53.613Z,10.10
2018-12-23T15:57:34.667Z,10.20
2018-12-23T16:00:15.894Z,10.20
2018-12-23T16:02:57.097Z,10.30
2018-12-23T16:05:37.856Z,10.30
2018-12-23T16:08:19.011Z,10.30
2018-12-23T16:10:59.962Z,10.40
2018-12-23T16:13:41.355Z,10.40
2018-12-23T16:16:22.346Z,10.40
2018-12-23T16:19:11.028Z,10.50
2018-12-23T16:21:51.852Z,10.50
2018-12-23T16:24:31.641Z,10.60
2018-12-23T16:27:12.936Z,10.60
2018-12-23T16:29:54.310Z,10.70
2018-12-23T16:32:35.653Z,10.70
2018-12-23T16:35:16.866Z,10.80
2018-12-23T16:37:58.033Z,10.80
2018-12-23T16:40:38.948Z,10.90
2018-12-23T16:43:18.728Z,10.90
2018-12-23T16:46:00.027Z,10.90
2018-12-23T16:48:40.969Z,11.10
2018-12-23T16:51:21.956Z,11.10
2018-12-23T16:54:02.742Z,11.20
2018-12-23T16:56:43.570Z,11.20
2018-12-23T16:59:24.611Z,11.30
2018-12-23T17:02:05.516Z,11.30
2018-12-23T17:04:47.193Z,11.40
2018-12-23T17:07:28.479Z,11.40
2018-12-23T17:10:09.591Z,11.40
2018-12-23T17:12:50.454Z,11.40
2018-12-23T17:15:31.526Z,11.40
2018-12-23T17:18:12.599Z,11.40
2018-12-23T17:20:54.105Z,11.50
2018-12-23T17:23:33.772Z,11.50
2018-12-23T17:26:13.544Z,11.50
2018-12-23T17:29:02.140Z,11.50
2018-12-23T17:31:42.968Z,11.50
2018-12-23T17:34:24.138Z,11.50
2018-12-23T17:37:05.219Z,11.50
2018-12-23T17:39:46.120Z,11.50
2018-12-23T17:42:26.973Z,11.50
2018-12-23T17:47:49.866Z,11.50
2018-12-23T17:50:30.787Z,11.50
2018-12-23T17:53:11.585Z,11.50
2018-12-23T17:55:52.537Z,11.60
2018-12-23T17:58:33.467Z,11.60
2018-12-23T18:01:14.577Z,11.60
2018-12-23T18:04:02.308Z,11.60
2018-12-23T18:06:39.158Z,11.70
2018-12-23T18:09:20.162Z,11.70
2018-12-23T18:12:01.063Z,11.70
2018-12-23T18:14:42.353Z,11.70
2018-12-23T18:17:23.180Z,11.70
2018-12-23T18:20:04.343Z,11.70
2018-12-23T18:22:45.769Z,11.70
2018-12-23T18:25:26.982Z,11.70
2018-12-23T18:28:07.767Z,11.80
2018-12-23T18:30:49.479Z,11.80
2018-12-23T18:33:30.248Z,11.70
2018-12-23T18:36:09.951Z,11.80
2018-12-23T18:38:58.615Z,11.80
2018-12-23T18:41:40.164Z,11.80
2018-12-23T18:44:21.144Z,11.80
2018-12-23T18:47:02.548Z,11.80
2018-12-23T18:49:43.314Z,11.80
2018-12-23T18:52:24.300Z,11.90
2018-12-23T18:55:05.237Z,11.90
2018-12-23T18:57:46.171Z,11.90
2018-12-23T19:00:27.691Z,11.90
2018-12-23T19:03:07.409Z,12.00
2018-12-23T19:05:56.035Z,11.90
2018-12-23T19:08:36.897Z,12.00
2018-12-23T19:11:18.067Z,12.00
2018-12-23T19:13:59.208Z,12.00
2018-12-23T19:16:40.495Z,12.00
2018-12-23T19:19:21.545Z,12.00
2018-12-23T19:22:02.662Z,12.00
2018-12-23T19:24:43.695Z,12.00
2018-12-23T19:27:24.506Z,12.00
2018-12-23T19:30:05.504Z,12.00
2018-12-23T19:32:46.585Z,12.00
2018-12-23T19:35:28.040Z,12.00
2018-12-23T19:38:09.473Z,12.00
2018-12-23T19:40:50.712Z,12.00
2018-12-23T19:43:31.689Z,12.00
2018-12-23T19:46:13.003Z,12.00
2018-12-23T19:48:53.943Z,12.00
2018-12-23T19:51:35.523Z,12.00
2018-12-23T19:54:16.380Z,12.00
2018-12-23T19:56:57.423Z,12.10
2018-12-23T19:59:59.206Z,12.10
2018-12-23T20:02:40.475Z,12.00
2018-12-23T20:05:21.418Z,12.00
2018-12-23T20:08:02.563Z,12.00
2018-12-23T20:10:43.467Z,12.10
2018-12-23T20:13:24.358Z,12.00
2018-12-23T20:16:05.087Z,12.00
2018-12-23T20:18:46.075Z,12.10
2018-12-23T20:21:27.371Z,12.00
2018-12-23T20:24:08.322Z,12.00
2018-12-23T20:26:49.363Z,11.90
2018-12-23T20:29:30.899Z,11.90
2018-12-23T20:32:12.197Z,11.80
2018-12-23T20:34:53.228Z,11.80
2018-12-23T20:37:34.372Z,11.80
2018-12-23T20:40:15.368Z,11.70
2018-12-23T20:42:56.378Z,11.60
2018-12-23T20:45:37.301Z,11.50
2018-12-23T20:48:18.309Z,11.50
2018-12-23T20:50:59.981Z,11.40
2018-12-23T20:53:41.415Z,11.40
2018-12-23T20:56:22.606Z,11.40
2018-12-23T20:59:03.763Z,11.30
2018-12-23T21:01:44.906Z,11.30
2018-12-23T21:04:25.754Z,11.20
2018-12-23T21:07:06.753Z,11.20
2018-12-23T21:09:48.163Z,11.20
2018-12-23T21:12:29.140Z,11.10
2018-12-23T21:15:10.322Z,11.10
2018-12-23T21:17:51.394Z,10.80
2018-12-23T21:20:32.235Z,10.70
2018-12-23T21:23:13.250Z,10.40
2018-12-23T21:32:25.754Z,10.00
2018-12-23T21:35:07.007Z,9.70
2018-12-23T21:37:48.209Z,9.60
2018-12-23T21:40:29.114Z,9.50
2018-12-23T21:43:10.435Z,9.40
2018-12-23T21:45:51.215Z,9.20
2018-12-23T21:48:32.232Z,9.10
2018-12-23T21:51:13.243Z,9.00
2018-12-23T21:53:54.420Z,9.00
2018-12-23T21:56:35.462Z,8.80
2018-12-23T21:59:16.291Z,8.70
2018-12-23T22:01:57.329Z,8.60
2018-12-23T22:04:38.589Z,8.50
2018-12-23T22:07:19.741Z,8.40
2018-12-23T22:10:01.375Z,8.30
2018-12-23T22:12:42.238Z,8.30
2018-12-23T22:15:23.145Z,8.30
2018-12-23T22:18:04.134Z,8.30
2018-12-23T22:20:45.178Z,8.20
2018-12-23T22:23:25.972Z,8.30
2018-12-23T22:26:07.100Z,8.20
2018-12-23T22:28:46.684Z,8.20
2018-12-23T22:31:35.297Z,8.20
2018-12-23T22:34:16.205Z,8.20
2018-12-23T22:36:57.215Z,8.20
2018-12-23T22:39:38.149Z,8.20
2018-12-23T22:42:18.140Z,8.20
2018-12-23T22:48:06.677Z,8.20
2018-12-23T22:50:47.563Z,8.20
2018-12-23T22:53:29.316Z,8.20
2018-12-23T22:56:10.688Z,8.10
2018-12-23T22:58:50.600Z,8.10
2018-12-23T23:04:39.333Z,8.00
2018-12-23T23:07:20.460Z,8.00
2018-12-23T23:10:01.299Z,7.90
2018-12-23T23:12:42.527Z,7.80
2018-12-23T23:15:23.464Z,7.80
2018-12-23T23:18:04.408Z,7.70
2018-12-23T23:20:45.473Z,7.70
2018-12-23T23:23:26.406Z,7.80
2018-12-23T23:26:07.260Z,7.70
2018-12-23T23:28:48.066Z,7.80
2018-12-23T23:31:29.156Z,7.80
2018-12-23T23:34:10.059Z,7.70
2018-12-23T23:36:50.947Z,7.80
2018-12-23T23:39:31.797Z,7.80
2018-12-23T23:42:12.918Z,7.60
2018-12-23T23:44:53.929Z,7.60
2018-12-23T23:47:35.213Z,7.60
2018-12-23T23:50:16.275Z,7.60
2018-12-23T23:52:57.351Z,7.50
2018-12-23T23:55:38.182Z,7.50
2018-12-23T23:58:19.062Z,7.50
